createdAt,value
2023-10-21T00:00:27.697Z,17.33
2023-10-21T00:01:30.339Z,16.00
2023-10-21T00:02:32.907Z,16.00
2023-10-21T00:03:35.819Z,17.17
2023-10-21T00:04:38.659Z,17.14
2023-10-21T00:05:41.396Z,16.67
2023-10-21T00:06:43.971Z,18.43
2023-10-21T00:07:46.720Z,18.50
2023-10-21T00:08:49.417Z,19.00
2023-10-21T00:09:52.196Z,20.83
2023-10-21T00:10:54.802Z,22.33
2023-10-21T00:11:57.519Z,22.67
2023-10-21T00:13:00.167Z,26.67
2023-10-21T00:14:02.980Z,25.33
2023-10-21T00:15:05.578Z,27.83
2023-10-21T00:16:08.360Z,23.17
2023-10-21T00:17:11.177Z,22.00
2023-10-21T00:18:14.003Z,21.00
2023-10-21T00:19:17.051Z,18.71
2023-10-21T00:20:19.851Z,19.29
2023-10-21T00:21:22.770Z,23.33
2023-10-21T00:22:25.744Z,23.67
2023-10-21T00:23:28.621Z,22.57
2023-10-21T00:24:31.303Z,21.57
2023-10-21T00:25:34.152Z,22.67
2023-10-21T00:26:36.947Z,21.50
2023-10-21T00:27:39.767Z,21.29
2023-10-21T00:28:42.748Z,21.83
2023-10-21T00:29:45.413Z,23.50
2023-10-21T00:30:48.198Z,21.83
2023-10-21T00:31:51.196Z,22.67
2023-10-21T00:32:53.899Z,23.29
2023-10-21T00:33:56.713Z,22.33
2023-10-21T00:34:59.431Z,22.33
2023-10-21T00:36:02.072Z,19.67
2023-10-21T00:37:04.779Z,19.17
2023-10-21T00:38:07.654Z,21.00
2023-10-21T00:39:10.806Z,20.17
2023-10-21T00:40:13.749Z,22.17
2023-10-21T00:41:16.876Z,23.17
2023-10-21T00:42:19.933Z,22.67
2023-10-21T00:43:22.914Z,23.57
2023-10-21T00:44:25.908Z,22.00
2023-10-21T00:45:28.814Z,21.67
2023-10-21T00:46:31.958Z,22.57
2023-10-21T00:47:35.127Z,23.86
2023-10-21T00:48:38.154Z,25.00
2023-10-21T00:49:40.997Z,23.67
2023-10-21T00:50:43.900Z,21.33
2023-10-21T00:51:46.780Z,21.00
2023-10-21T00:52:49.676Z,19.67
2023-10-21T00:53:53.057Z,20.00
2023-10-21T00:54:55.977Z,21.29
2023-10-21T00:55:58.861Z,21.33
2023-10-21T00:57:01.837Z,21.00
2023-10-21T00:58:04.645Z,20.57
2023-10-21T00:59:07.378Z,20.00
2023-10-21T01:00:10.266Z,21.83
2023-10-21T01:01:13.316Z,20.67
2023-10-21T01:02:16.208Z,19.83
2023-10-21T01:03:19.301Z,20.57
2023-10-21T01:04:22.388Z,21.14
2023-10-21T01:05:25.410Z,19.83
2023-10-21T01:06:28.263Z,19.83
2023-10-21T01:07:31.286Z,20.00
2023-10-21T01:08:34.149Z,20.86
2023-10-21T01:09:37.279Z,21.33
2023-10-21T01:10:40.347Z,21.29
2023-10-21T01:11:43.216Z,23.00
2023-10-21T01:12:46.119Z,23.50
2023-10-21T01:13:48.859Z,21.43
2023-10-21T01:14:51.504Z,19.50
2023-10-21T01:15:54.285Z,22.00
2023-10-21T01:16:56.944Z,21.00
2023-10-21T01:17:59.595Z,22.14
2023-10-21T01:19:02.313Z,20.33
2023-10-21T01:20:04.909Z,19.00
2023-10-21T01:21:07.677Z,19.00
2023-10-21T01:22:10.516Z,19.67
2023-10-21T01:23:13.657Z,19.00
2023-10-21T01:24:16.659Z,20.29
2023-10-21T01:25:19.692Z,22.00
2023-10-21T01:26:22.470Z,20.71
2023-10-21T01:27:25.132Z,18.67
2023-10-21T01:28:27.702Z,20.00
2023-10-21T01:29:30.395Z,20.00
2023-10-21T01:30:32.974Z,20.17
2023-10-21T01:31:35.556Z,22.67
2023-10-21T01:32:38.216Z,23.00
2023-10-21T01:33:41.008Z,23.33
2023-10-21T01:34:43.743Z,24.50
2023-10-21T01:35:46.481Z,22.33
2023-10-21T01:36:49.097Z,22.17
2023-10-21T01:37:51.821Z,22.00
2023-10-21T01:38:54.427Z,20.43
2023-10-21T01:39:57.019Z,20.67
2023-10-21T01:40:59.603Z,22.67
2023-10-21T01:42:02.206Z,23.00
2023-10-21T01:43:04.823Z,22.33
2023-10-21T01:44:07.516Z,23.50
2023-10-21T01:45:10.240Z,22.50
2023-10-21T01:46:12.920Z,21.00
2023-10-21T01:47:15.836Z,20.67
2023-10-21T01:48:18.714Z,20.57
2023-10-21T01:49:21.366Z,20.67
2023-10-21T01:50:24.057Z,22.33
2023-10-21T01:51:26.786Z,23.57
2023-10-21T01:52:29.568Z,22.67
2023-10-21T01:53:32.362Z,21.67
2023-10-21T01:54:35.258Z,23.00
2023-10-21T01:55:37.886Z,22.17
2023-10-21T01:56:40.542Z,21.00
2023-10-21T01:57:43.256Z,21.00
2023-10-21T01:58:45.898Z,23.00
2023-10-21T01:59:48.619Z,21.00
2023-10-21T02:00:51.363Z,20.00
2023-10-21T02:01:53.942Z,20.33
2023-10-21T02:02:56.758Z,18.50
2023-10-21T02:03:59.435Z,18.67
2023-10-21T02:05:02.080Z,19.17
2023-10-21T02:06:04.750Z,19.67
2023-10-21T02:07:07.437Z,20.00
2023-10-21T02:08:10.069Z,21.50
2023-10-21T02:09:12.743Z,20.33
2023-10-21T02:10:15.439Z,20.50
2023-10-21T02:11:18.111Z,20.00
2023-10-21T02:12:20.925Z,21.67
2023-10-21T02:13:23.543Z,20.17
2023-10-21T02:14:26.235Z,19.00
2023-10-21T02:15:28.867Z,19.00
2023-10-21T02:16:31.551Z,19.33
2023-10-21T02:17:34.234Z,19.43
2023-10-21T02:18:37.023Z,18.83
2023-10-21T02:19:39.936Z,18.33
2023-10-21T02:20:42.674Z,17.00
2023-10-21T02:21:45.361Z,18.43
2023-10-21T02:22:48.184Z,18.67
2023-10-21T02:23:51.105Z,18.57
2023-10-21T02:24:53.816Z,17.33
2023-10-21T02:25:56.711Z,17.33
2023-10-21T02:26:59.380Z,17.67
2023-10-21T02:28:02.059Z,16.40
2023-10-21T02:29:04.893Z,17.67
2023-10-21T02:30:07.705Z,18.00
2023-10-21T02:31:10.612Z,16.33
2023-10-21T02:32:13.411Z,16.57
2023-10-21T02:33:16.267Z,14.67
2023-10-21T02:34:19.118Z,15.00
2023-10-21T02:35:21.892Z,15.50
2023-10-21T02:36:24.585Z,14.67
2023-10-21T02:37:27.212Z,13.33
2023-10-21T02:38:29.956Z,11.83
2023-10-21T02:39:32.708Z,13.00
2023-10-21T02:40:35.507Z,13.00
2023-10-21T02:41:38.208Z,13.67
2023-10-21T02:42:40.820Z,13.86
2023-10-21T02:43:43.538Z,14.00
2023-10-21T02:44:46.253Z,12.33
2023-10-21T02:45:49.201Z,11.00
2023-10-21T02:46:51.856Z,12.29
2023-10-21T02:47:54.757Z,12.00
2023-10-21T02:48:57.452Z,12.43
2023-10-21T02:50:00.474Z,12.00
2023-10-21T02:51:03.323Z,11.00
2023-10-21T02:52:06.122Z,10.57
2023-10-21T02:53:08.820Z,11.00
2023-10-21T02:54:11.650Z,10.00
2023-10-21T02:55:14.637Z,11.33
2023-10-21T02:56:17.293Z,13.83
2023-10-21T02:57:20.188Z,13.67
2023-10-21T02:58:22.816Z,12.71
2023-10-21T02:59:25.484Z,9.50
2023-10-21T03:00:28.310Z,10.50
2023-10-21T03:01:31.064Z,11.67
2023-10-21T03:02:33.856Z,10.67
2023-10-21T03:03:36.624Z,9.50
2023-10-21T03:04:39.399Z,9.43
2023-10-21T03:05:42.117Z,10.00
2023-10-21T03:06:44.787Z,9.67
2023-10-21T03:07:47.512Z,10.83
2023-10-21T03:08:50.313Z,11.00
2023-10-21T03:09:53.265Z,10.00
2023-10-21T03:10:55.970Z,9.43
2023-10-21T03:11:58.870Z,9.17
2023-10-21T03:13:01.648Z,8.00
2023-10-21T03:14:04.491Z,7.67
2023-10-21T03:15:07.125Z,7.33
2023-10-21T03:16:09.884Z,7.50
2023-10-21T03:17:12.672Z,6.50
2023-10-21T03:18:15.682Z,6.00
2023-10-21T03:19:18.882Z,5.86
2023-10-21T03:20:21.785Z,6.00
2023-10-21T03:21:24.821Z,5.67
2023-10-21T03:22:27.750Z,6.67
2023-10-21T03:23:30.611Z,7.67
2023-10-21T03:24:33.802Z,9.33
2023-10-21T03:25:36.707Z,7.43
2023-10-21T03:26:39.768Z,7.00
2023-10-21T03:27:42.652Z,6.57
2023-10-21T03:28:45.757Z,6.43
2023-10-21T03:29:48.967Z,8.29
2023-10-21T03:30:51.926Z,7.14
2023-10-21T03:31:55.551Z,7.86
2023-10-21T03:32:58.239Z,7.29
2023-10-21T03:34:00.968Z,7.57
2023-10-21T03:35:03.671Z,7.50
2023-10-21T03:36:06.427Z,8.00
2023-10-21T03:37:09.428Z,8.17
2023-10-21T03:38:12.186Z,9.14
2023-10-21T03:39:15.032Z,9.83
2023-10-21T03:40:18.239Z,10.14
2023-10-21T03:41:21.121Z,8.00
2023-10-21T03:42:24.028Z,9.00
2023-10-21T03:43:26.823Z,8.83
2023-10-21T03:44:29.962Z,9.86
2023-10-21T03:45:32.781Z,10.29
2023-10-21T03:46:35.719Z,9.00
2023-10-21T03:47:38.785Z,10.14
2023-10-21T03:48:41.809Z,10.57
2023-10-21T03:49:44.730Z,10.00
2023-10-21T03:50:47.840Z,11.67
2023-10-21T03:51:50.972Z,12.57
2023-10-21T03:52:53.952Z,11.29
2023-10-21T03:53:56.943Z,10.29
2023-10-21T03:54:59.817Z,11.00
2023-10-21T03:56:02.753Z,11.33
2023-10-21T03:57:05.821Z,13.00
2023-10-21T03:58:08.811Z,14.43
2023-10-21T03:59:11.716Z,15.33
2023-10-21T04:00:14.643Z,13.00
2023-10-21T04:01:17.706Z,13.00
2023-10-21T04:02:20.863Z,14.00
2023-10-21T04:03:23.848Z,13.00
2023-10-21T04:04:26.963Z,12.71
2023-10-21T04:05:29.879Z,13.50
2023-10-21T04:06:32.822Z,13.33
2023-10-21T04:07:35.807Z,13.29
2023-10-21T04:08:38.736Z,12.33
2023-10-21T04:09:41.556Z,13.17
2023-10-21T04:10:44.433Z,12.57
2023-10-21T04:11:47.417Z,12.50
2023-10-21T04:12:50.416Z,13.17
2023-10-21T04:13:53.485Z,13.14
2023-10-21T04:14:56.424Z,11.86
2023-10-21T04:15:59.938Z,11.67
2023-10-21T04:17:03.044Z,13.14
2023-10-21T04:18:06.123Z,13.57
2023-10-21T04:19:09.105Z,13.83
2023-10-21T04:20:12.246Z,13.57
2023-10-21T04:21:15.207Z,13.43
2023-10-21T04:22:18.068Z,13.71
2023-10-21T04:23:21.118Z,14.17
2023-10-21T04:24:24.101Z,14.57
2023-10-21T04:25:27.276Z,13.86
2023-10-21T04:26:30.322Z,13.14
2023-10-21T04:27:33.294Z,12.43
2023-10-21T04:28:36.326Z,14.43
2023-10-21T04:29:39.217Z,14.00
2023-10-21T04:30:42.085Z,12.67
2023-10-21T04:31:44.968Z,13.29
2023-10-21T04:32:47.914Z,12.33
2023-10-21T04:33:50.915Z,11.33
2023-10-21T04:34:53.789Z,14.57
2023-10-21T04:35:56.693Z,13.00
2023-10-21T04:36:59.682Z,13.17
2023-10-21T04:38:02.572Z,13.67
2023-10-21T04:39:05.652Z,14.83
2023-10-21T04:40:08.582Z,14.14
2023-10-21T04:41:11.644Z,12.86
2023-10-21T04:42:14.786Z,12.83
2023-10-21T04:43:17.991Z,11.57
2023-10-21T04:44:20.933Z,11.50
2023-10-21T04:45:24.155Z,12.83
2023-10-21T04:46:26.934Z,12.71
2023-10-21T04:47:29.957Z,11.71
2023-10-21T04:48:33.833Z,12.33
2023-10-21T04:49:36.767Z,11.29
2023-10-21T04:50:39.417Z,11.57
2023-10-21T04:51:42.095Z,10.67
2023-10-21T04:52:44.793Z,12.50
2023-10-21T04:53:47.524Z,14.17
2023-10-21T04:54:50.306Z,11.67
2023-10-21T04:55:53.108Z,13.00
2023-10-21T04:56:55.922Z,13.00
2023-10-21T04:57:58.639Z,10.83
2023-10-21T04:59:02.530Z,9.00
2023-10-21T05:00:05.407Z,10.43
2023-10-21T05:01:08.348Z,11.00
2023-10-21T05:02:11.186Z,10.14
2023-10-21T05:03:14.294Z,8.83
2023-10-21T05:04:17.411Z,8.67
2023-10-21T05:05:20.113Z,9.50
2023-10-21T05:06:22.856Z,10.00
2023-10-21T05:07:25.531Z,9.00
2023-10-21T05:08:28.190Z,9.71
2023-10-21T05:09:30.772Z,8.83
2023-10-21T05:10:33.420Z,7.33
2023-10-21T05:11:36.002Z,8.33
2023-10-21T05:12:38.623Z,9.33
2023-10-21T05:13:41.182Z,8.50
2023-10-21T05:14:43.823Z,8.00
2023-10-21T05:15:46.517Z,9.67
2023-10-21T05:16:49.236Z,9.00
2023-10-21T05:17:52.041Z,8.67
2023-10-21T05:18:54.680Z,8.57
2023-10-21T05:19:57.298Z,7.83
2023-10-21T05:21:00.072Z,6.83
2023-10-21T05:22:02.807Z,7.00
2023-10-21T05:23:05.456Z,6.67
2023-10-21T05:24:08.249Z,7.57
2023-10-21T05:25:11.002Z,7.67
2023-10-21T05:26:13.659Z,9.00
2023-10-21T05:27:16.459Z,8.83
2023-10-21T05:28:19.063Z,9.33
2023-10-21T05:29:21.857Z,8.17
2023-10-21T05:30:24.571Z,8.00
2023-10-21T05:31:27.304Z,8.00
2023-10-21T05:32:30.254Z,8.33
2023-10-21T05:33:33.152Z,9.14
2023-10-21T05:34:36.456Z,8.57
2023-10-21T05:35:39.312Z,10.00
2023-10-21T05:36:41.958Z,9.33
2023-10-21T05:37:44.816Z,8.50
2023-10-21T05:38:47.563Z,8.83
2023-10-21T05:39:50.389Z,8.67
2023-10-21T05:40:53.020Z,10.00
2023-10-21T05:41:55.845Z,8.17
2023-10-21T05:42:58.672Z,9.50
2023-10-21T05:44:01.448Z,10.00
2023-10-21T05:45:04.089Z,8.83
2023-10-21T05:46:06.911Z,9.67
2023-10-21T05:47:09.647Z,9.33
2023-10-21T05:48:12.512Z,10.17
2023-10-21T05:49:15.386Z,10.86
2023-10-21T05:50:18.212Z,8.00
2023-10-21T05:51:20.925Z,8.00
2023-10-21T05:52:23.626Z,9.00
2023-10-21T05:53:26.350Z,11.33
2023-10-21T05:54:29.002Z,10.17
2023-10-21T05:55:31.727Z,9.83
2023-10-21T05:56:34.425Z,10.00
2023-10-21T05:57:37.067Z,10.50
2023-10-21T05:58:39.884Z,10.17
2023-10-21T05:59:42.673Z,10.00
2023-10-21T06:00:45.433Z,10.33
2023-10-21T06:01:48.043Z,11.14
2023-10-21T06:02:50.787Z,11.33
2023-10-21T06:03:53.981Z,10.14
2023-10-21T06:04:56.675Z,11.29
2023-10-21T06:05:59.288Z,12.33
2023-10-21T06:07:01.979Z,12.33
2023-10-21T06:08:04.793Z,11.17
2023-10-21T06:09:07.512Z,10.33
2023-10-21T06:10:10.175Z,10.50
2023-10-21T06:11:12.976Z,10.57
2023-10-21T06:12:15.721Z,11.67
2023-10-21T06:13:18.437Z,13.17
2023-10-21T06:14:21.154Z,13.33
2023-10-21T06:15:23.828Z,12.33
2023-10-21T06:16:26.503Z,12.33
2023-10-21T06:17:29.437Z,11.67
2023-10-21T06:18:32.148Z,13.14
2023-10-21T06:19:34.957Z,12.00
2023-10-21T06:20:37.779Z,12.29
2023-10-21T06:21:40.537Z,14.33
2023-10-21T06:22:43.216Z,14.00
2023-10-21T06:23:45.936Z,12.67
2023-10-21T06:24:48.622Z,14.00
2023-10-21T06:25:51.380Z,13.83
2023-10-21T06:26:54.069Z,14.00
2023-10-21T06:27:56.744Z,14.33
2023-10-21T06:28:59.366Z,13.83
2023-10-21T06:30:02.189Z,12.17
2023-10-21T06:31:04.982Z,13.00
2023-10-21T06:32:07.567Z,14.33
2023-10-21T06:33:10.500Z,15.67
2023-10-21T06:34:13.582Z,13.50
2023-10-21T06:35:16.317Z,15.14
2023-10-21T06:36:19.013Z,16.50
2023-10-21T06:37:21.797Z,15.83
2023-10-21T06:38:24.554Z,14.50
2023-10-21T06:39:27.232Z,15.86
2023-10-21T06:40:42.973Z,16.67
2023-10-21T06:41:33.950Z,16.14
2023-10-21T06:42:36.694Z,15.14
2023-10-21T06:43:39.645Z,16.00
2023-10-21T06:44:42.342Z,15.86
2023-10-21T06:45:44.953Z,17.50
2023-10-21T06:46:47.641Z,18.67
2023-10-21T06:47:50.743Z,18.17
2023-10-21T06:48:53.518Z,17.57
2023-10-21T06:49:56.230Z,15.00
2023-10-21T06:50:58.920Z,16.00
2023-10-21T06:52:01.555Z,15.33
2023-10-21T06:53:04.215Z,17.50
2023-10-21T06:54:06.928Z,17.33
2023-10-21T06:55:09.816Z,16.33
2023-10-21T06:56:12.502Z,17.33
2023-10-21T06:57:15.273Z,19.00
2023-10-21T06:58:17.975Z,19.29
2023-10-21T06:59:20.598Z,17.83
2023-10-21T07:00:23.284Z,18.00
2023-10-21T07:01:26.070Z,17.33
2023-10-21T07:02:28.808Z,15.00
2023-10-21T07:03:31.505Z,15.00
2023-10-21T07:04:35.383Z,15.00
2023-10-21T07:05:37.951Z,15.00
2023-10-21T07:06:40.665Z,15.00
2023-10-21T07:07:43.285Z,15.67
2023-10-21T07:08:45.900Z,15.00
2023-10-21T07:09:48.620Z,15.67
2023-10-21T07:10:51.188Z,18.33
2023-10-21T07:11:54.121Z,15.50
2023-10-21T07:12:57.013Z,13.43
2023-10-21T07:14:00.075Z,14.86
2023-10-21T07:15:03.032Z,15.83
2023-10-21T07:16:06.125Z,13.33
2023-10-21T07:17:09.082Z,13.33
2023-10-21T07:18:12.168Z,12.17
2023-10-21T07:19:15.061Z,12.00
2023-10-21T07:20:17.907Z,12.67
2023-10-21T07:21:21.093Z,12.67
2023-10-21T07:22:24.376Z,11.71
2023-10-21T07:23:27.506Z,10.57
2023-10-21T07:24:30.389Z,9.33
2023-10-21T07:25:33.470Z,7.86
2023-10-21T07:26:36.536Z,7.67
2023-10-21T07:27:39.519Z,9.86
2023-10-21T07:28:42.504Z,9.00
2023-10-21T07:29:45.349Z,8.33
2023-10-21T07:30:48.442Z,8.14
2023-10-21T07:31:52.139Z,8.33
2023-10-21T07:32:55.470Z,8.43
2023-10-21T07:33:58.546Z,7.33
2023-10-21T07:35:01.453Z,7.00
2023-10-21T07:36:04.567Z,7.50
2023-10-21T07:37:07.473Z,6.17
2023-10-21T07:38:10.380Z,5.83
2023-10-21T07:39:13.283Z,5.43
2023-10-21T07:40:16.211Z,6.33
2023-10-21T07:41:19.102Z,4.00
2023-10-21T07:42:22.057Z,5.67
2023-10-21T07:43:24.942Z,6.50
2023-10-21T07:44:27.893Z,5.57
2023-10-21T07:45:30.841Z,5.00
2023-10-21T07:46:33.681Z,4.67
2023-10-21T07:47:36.619Z,4.33
2023-10-21T07:48:39.547Z,5.83
2023-10-21T07:49:42.479Z,4.67
2023-10-21T07:50:45.349Z,4.00
2023-10-21T07:51:48.607Z,4.50
2023-10-21T07:52:51.475Z,6.00
2023-10-21T07:53:54.542Z,6.33
2023-10-21T07:54:57.488Z,6.71
2023-10-21T07:56:00.421Z,4.00
2023-10-21T07:57:03.449Z,4.33
2023-10-21T07:58:06.351Z,4.83
2023-10-21T07:59:09.177Z,4.57
2023-10-21T08:00:12.047Z,4.00
2023-10-21T08:01:14.916Z,3.57
2023-10-21T08:02:17.711Z,3.50
2023-10-21T08:03:20.661Z,5.43
2023-10-21T08:04:23.554Z,6.00
2023-10-21T08:05:26.412Z,5.67
2023-10-21T08:06:29.251Z,5.00
2023-10-21T08:07:32.099Z,4.00
2023-10-21T08:08:35.117Z,4.00
2023-10-21T08:09:37.945Z,4.00
2023-10-21T08:10:40.793Z,4.00
2023-10-21T08:11:43.852Z,3.67
2023-10-21T08:12:46.684Z,3.33
2023-10-21T08:13:49.809Z,4.29
2023-10-21T08:14:52.712Z,4.33
2023-10-21T08:15:55.709Z,5.33
2023-10-21T08:16:58.575Z,5.14
2023-10-21T08:18:01.570Z,4.43
2023-10-21T08:19:04.740Z,4.17
2023-10-21T08:20:07.838Z,3.33
2023-10-21T08:21:10.821Z,4.00
2023-10-21T08:22:13.720Z,4.00
2023-10-21T08:23:16.646Z,4.00
2023-10-21T08:24:20.503Z,4.00
2023-10-21T08:25:26.303Z,4.00
2023-10-21T08:26:28.869Z,4.87
2023-10-21T08:27:32.664Z,4.50
2023-10-21T08:28:35.650Z,4.57
2023-10-21T08:29:39.335Z,4.00
2023-10-21T08:30:42.724Z,4.75
2023-10-21T08:31:45.400Z,5.00
2023-10-21T08:32:48.026Z,5.17
2023-10-21T08:33:50.819Z,4.67
2023-10-21T08:34:53.459Z,3.00
2023-10-21T08:35:56.313Z,3.33
2023-10-21T08:36:59.092Z,4.43
2023-10-21T08:38:01.760Z,5.00
2023-10-21T08:39:04.347Z,4.67
2023-10-21T08:40:06.972Z,4.00
2023-10-21T08:41:09.627Z,4.67
2023-10-21T08:42:12.195Z,5.17
2023-10-21T08:43:15.090Z,4.33
2023-10-21T08:44:18.138Z,4.57
2023-10-21T08:45:21.172Z,4.86
2023-10-21T08:46:24.058Z,5.33
2023-10-21T08:47:26.972Z,4.43
2023-10-21T08:48:29.844Z,4.33
2023-10-21T08:49:32.463Z,4.33
2023-10-21T08:50:35.491Z,4.00
2023-10-21T08:51:38.490Z,4.57
2023-10-21T08:52:41.391Z,4.00
2023-10-21T08:53:44.298Z,4.33
2023-10-21T08:54:47.156Z,5.33
2023-10-21T08:55:50.178Z,5.14
2023-10-21T08:56:53.072Z,5.00
2023-10-21T08:57:56.128Z,5.33
2023-10-21T08:58:58.972Z,5.00
2023-10-21T09:00:01.892Z,4.67
2023-10-21T09:01:04.650Z,5.57
2023-10-21T09:02:07.574Z,4.67
2023-10-21T09:03:10.738Z,4.00
2023-10-21T09:05:16.567Z,4.00
2023-10-21T09:06:19.402Z,4.43
2023-10-21T09:07:23.909Z,5.86
2023-10-21T09:08:26.212Z,5.71
2023-10-21T09:09:28.892Z,4.33
2023-10-21T09:10:31.502Z,5.00
2023-10-21T09:11:34.039Z,5.20
2023-10-21T09:12:36.669Z,6.00
2023-10-21T09:13:39.225Z,5.33
2023-10-21T09:14:41.784Z,4.00
2023-10-21T09:15:44.487Z,3.67
2023-10-21T09:16:47.227Z,3.67
2023-10-21T09:17:50.012Z,4.67
2023-10-21T09:18:52.650Z,5.00
2023-10-21T09:19:55.613Z,5.00
2023-10-21T09:20:58.305Z,5.33
2023-10-21T09:22:01.051Z,4.00
2023-10-21T09:23:03.717Z,4.67
2023-10-21T09:24:06.454Z,4.50
2023-10-21T09:25:09.139Z,5.00
2023-10-21T09:26:11.843Z,5.00
2023-10-21T09:27:14.760Z,6.00
2023-10-21T09:28:17.669Z,7.14
2023-10-21T09:29:20.597Z,5.43
2023-10-21T09:30:23.589Z,4.67
2023-10-21T09:31:26.310Z,5.57
2023-10-21T09:32:28.926Z,5.33
2023-10-21T09:33:31.685Z,5.83
2023-10-21T09:34:34.510Z,5.00
2023-10-21T09:35:38.242Z,5.00
2023-10-21T09:36:41.303Z,5.43
2023-10-21T09:37:44.083Z,6.00
2023-10-21T09:38:46.727Z,5.00
2023-10-21T09:39:49.546Z,5.00
2023-10-21T09:40:52.210Z,6.00
2023-10-21T09:41:54.917Z,7.00
2023-10-21T09:42:57.675Z,6.00
2023-10-21T09:44:00.366Z,8.00
2023-10-21T09:45:03.106Z,5.33
2023-10-21T09:46:06.032Z,5.67
2023-10-21T09:47:08.814Z,5.14
2023-10-21T09:48:11.594Z,5.67
2023-10-21T09:49:14.354Z,5.00
2023-10-21T09:50:17.058Z,4.67
2023-10-21T09:51:19.777Z,4.00
2023-10-21T09:52:22.523Z,5.43
2023-10-21T09:53:25.168Z,5.67
2023-10-21T09:54:27.856Z,5.00
2023-10-21T09:55:30.502Z,5.33
2023-10-21T09:56:33.110Z,6.00
2023-10-21T09:57:35.949Z,5.33
2023-10-21T09:58:38.871Z,5.00
2023-10-21T09:59:42.682Z,5.33
2023-10-21T10:00:45.386Z,4.57
2023-10-21T10:01:48.163Z,4.33
2023-10-21T10:02:50.966Z,5.00
2023-10-21T10:03:53.881Z,5.00
2023-10-21T10:04:56.766Z,5.00
2023-10-21T10:05:59.522Z,4.33
2023-10-21T10:07:05.468Z,4.67
2023-10-21T10:08:06.382Z,6.00
2023-10-21T10:09:09.326Z,4.33
2023-10-21T10:10:12.445Z,5.33
2023-10-21T10:11:15.332Z,5.57
2023-10-21T10:12:18.253Z,5.00
2023-10-21T10:13:21.022Z,5.00
2023-10-21T10:14:23.854Z,5.67
2023-10-21T10:15:26.807Z,6.00
2023-10-21T10:16:29.756Z,6.33
2023-10-21T10:17:32.633Z,6.00
2023-10-21T10:18:35.589Z,5.43
2023-10-21T10:19:38.548Z,5.67
2023-10-21T10:20:41.517Z,5.00
2023-10-21T10:21:44.383Z,4.57
2023-10-21T10:22:47.266Z,3.83
2023-10-21T10:23:50.211Z,4.86
2023-10-21T10:24:53.136Z,5.00
2023-10-21T10:25:56.391Z,5.00
2023-10-21T10:26:59.086Z,5.86
2023-10-21T10:28:02.221Z,5.50
2023-10-21T10:29:05.162Z,5.14
2023-10-21T10:30:08.043Z,5.43
2023-10-21T10:31:11.014Z,6.00
2023-10-21T10:32:14.070Z,5.00
2023-10-21T10:33:17.309Z,5.29
2023-10-21T10:34:20.402Z,5.00
2023-10-21T10:35:23.326Z,5.33
2023-10-21T10:36:26.204Z,5.00
2023-10-21T10:37:29.211Z,5.33
2023-10-21T10:38:32.184Z,5.33
2023-10-21T10:39:35.370Z,4.71
2023-10-21T10:40:38.626Z,5.29
2023-10-21T10:41:41.737Z,5.00
2023-10-21T10:42:44.634Z,4.67
2023-10-21T10:43:47.590Z,5.67
2023-10-21T10:44:50.480Z,6.00
2023-10-21T10:45:53.498Z,7.00
2023-10-21T10:46:56.401Z,5.00
2023-10-21T10:47:59.633Z,6.00
2023-10-21T10:49:02.680Z,6.33
2023-10-21T10:50:05.779Z,6.57
2023-10-21T10:51:09.019Z,6.00
2023-10-21T10:52:12.014Z,6.14
2023-10-21T10:53:15.123Z,5.33
2023-10-21T10:54:18.085Z,4.67
2023-10-21T10:55:21.013Z,6.00
2023-10-21T10:56:23.870Z,5.00
2023-10-21T10:57:26.792Z,4.83
2023-10-21T10:58:29.699Z,5.00
2023-10-21T10:59:32.572Z,5.00
2023-10-21T11:00:35.577Z,5.57
2023-10-21T11:01:38.397Z,6.00
2023-10-21T11:02:41.160Z,5.57
2023-10-21T11:03:43.993Z,5.33
2023-10-21T11:04:46.717Z,6.00
2023-10-21T11:05:49.738Z,7.00
2023-10-21T11:06:52.423Z,5.43
2023-10-21T11:07:55.125Z,5.00
2023-10-21T11:08:58.030Z,6.00
2023-10-21T11:10:00.783Z,5.43
2023-10-21T11:11:03.494Z,5.67
2023-10-21T11:12:10.960Z,5.00
2023-10-21T11:13:10.535Z,6.50
2023-10-21T11:14:13.376Z,7.00
2023-10-21T11:15:16.487Z,5.86
2023-10-21T11:16:19.619Z,6.57
2023-10-21T11:17:22.485Z,6.00
2023-10-21T11:18:25.391Z,6.00
2023-10-21T11:19:28.293Z,5.67
2023-10-21T11:20:31.385Z,5.00
2023-10-21T11:21:34.489Z,6.33
2023-10-21T11:22:37.619Z,7.29
2023-10-21T11:23:40.510Z,7.33
2023-10-21T11:24:43.505Z,8.71
2023-10-21T11:25:46.465Z,6.33
2023-10-21T11:26:49.414Z,5.83
2023-10-21T11:27:52.327Z,7.14
2023-10-21T11:28:55.359Z,8.14
2023-10-21T11:29:58.474Z,7.50
2023-10-21T11:31:01.361Z,6.86
2023-10-21T11:32:04.394Z,6.57
2023-10-21T11:33:07.374Z,6.17
2023-10-21T11:34:10.884Z,6.43
2023-10-21T11:35:14.058Z,6.14
2023-10-21T11:36:17.443Z,5.33
2023-10-21T11:37:20.553Z,6.57
2023-10-21T11:38:23.488Z,7.00
2023-10-21T11:39:26.430Z,6.86
2023-10-21T11:40:29.312Z,6.33
2023-10-21T11:41:32.484Z,5.00
2023-10-21T11:42:35.371Z,5.00
2023-10-21T11:43:38.211Z,5.67
2023-10-21T11:44:40.960Z,6.57
2023-10-21T11:45:43.845Z,6.00
2023-10-21T11:46:46.865Z,7.43
2023-10-21T11:47:49.826Z,6.86
2023-10-21T11:48:52.740Z,7.33
2023-10-21T11:49:55.587Z,7.00
2023-10-21T11:50:58.788Z,7.00
2023-10-21T11:52:01.607Z,7.86
2023-10-21T11:53:04.463Z,6.33
2023-10-21T11:54:07.633Z,6.00
2023-10-21T11:55:10.939Z,8.14
2023-10-21T11:56:13.803Z,8.14
2023-10-21T11:57:16.952Z,6.67
2023-10-21T11:58:19.805Z,6.14
2023-10-21T11:59:22.742Z,6.00
2023-10-21T12:00:25.612Z,5.57
2023-10-21T12:01:28.490Z,6.33
2023-10-21T12:02:31.367Z,8.17
2023-10-21T12:03:34.664Z,7.14
2023-10-21T12:04:37.802Z,6.43
2023-10-21T12:05:41.030Z,6.57
2023-10-21T12:06:43.963Z,6.57
2023-10-21T12:07:46.904Z,6.33
2023-10-21T12:08:49.916Z,5.33
2023-10-21T12:09:53.213Z,6.43
2023-10-21T12:10:56.116Z,7.43
2023-10-21T12:11:58.966Z,7.14
2023-10-21T12:13:01.992Z,6.86
2023-10-21T12:14:04.875Z,6.33
2023-10-21T12:15:07.867Z,7.29
2023-10-21T12:16:10.857Z,8.33
2023-10-21T12:17:15.011Z,6.50
2023-10-21T12:18:17.904Z,5.37
2023-10-21T12:19:20.884Z,5.57
2023-10-21T12:20:23.468Z,6.33
2023-10-21T12:21:26.124Z,6.57
2023-10-21T12:22:28.771Z,6.67
2023-10-21T12:23:31.471Z,8.33
2023-10-21T12:24:34.185Z,8.67
2023-10-21T12:25:36.848Z,6.33
2023-10-21T12:26:39.551Z,8.00
2023-10-21T12:27:42.278Z,9.67
2023-10-21T12:28:45.007Z,9.00
2023-10-21T12:29:47.624Z,8.83
2023-10-21T12:30:50.288Z,6.67
2023-10-21T12:31:53.429Z,7.50
2023-10-21T12:32:56.119Z,7.00
2023-10-21T12:33:58.690Z,8.00
2023-10-21T12:35:01.350Z,9.33
2023-10-21T12:36:03.967Z,7.33
2023-10-21T12:37:06.587Z,8.33
2023-10-21T12:38:09.352Z,7.67
2023-10-21T12:39:12.288Z,7.33
2023-10-21T12:40:15.109Z,8.00
2023-10-21T12:41:18.066Z,9.86
2023-10-21T12:42:20.716Z,9.33
2023-10-21T12:43:23.315Z,8.33
2023-10-21T12:44:26.088Z,9.00
2023-10-21T12:45:28.839Z,8.57
2023-10-21T12:46:31.551Z,7.67
2023-10-21T12:47:34.393Z,7.50
2023-10-21T12:48:37.179Z,8.00
2023-10-21T12:49:39.894Z,7.33
2023-10-21T12:50:42.592Z,7.67
2023-10-21T12:51:45.258Z,8.67
2023-10-21T12:52:47.924Z,8.17
2023-10-21T12:53:55.265Z,8.43
2023-10-21T12:54:54.756Z,9.50
2023-10-21T12:55:57.637Z,10.00
2023-10-21T12:57:00.404Z,8.83
2023-10-21T12:58:03.133Z,8.00
2023-10-21T12:59:05.811Z,8.67
2023-10-21T13:00:08.482Z,9.67
2023-10-21T13:01:11.328Z,7.33
2023-10-21T13:02:14.067Z,8.33
2023-10-21T13:03:16.963Z,9.83
2023-10-21T13:04:19.804Z,11.14
2023-10-21T13:05:23.881Z,9.67
2023-10-21T13:06:26.785Z,9.00
2023-10-21T13:07:29.712Z,10.00
2023-10-21T13:08:32.414Z,11.17
2023-10-21T13:09:35.256Z,10.00
2023-10-21T13:10:38.131Z,9.29
2023-10-21T13:11:40.814Z,8.83
2023-10-21T13:12:43.687Z,9.67
2023-10-21T13:13:46.616Z,8.33
2023-10-21T13:14:49.285Z,9.00
2023-10-21T13:15:52.058Z,9.71
2023-10-21T13:16:54.761Z,9.33
2023-10-21T13:17:57.428Z,8.33
2023-10-21T13:19:00.215Z,8.57
2023-10-21T13:20:03.065Z,8.00
2023-10-21T13:21:05.821Z,8.67
2023-10-21T13:22:08.565Z,9.33
2023-10-21T13:23:11.378Z,9.00
2023-10-21T13:24:14.113Z,11.83
2023-10-21T13:25:18.967Z,10.83
2023-10-21T13:26:20.782Z,9.43
2023-10-21T13:27:23.506Z,9.29
2023-10-21T13:28:26.335Z,9.00
2023-10-21T13:29:29.156Z,10.00
2023-10-21T13:30:31.943Z,12.00
2023-10-21T13:31:34.623Z,11.00
2023-10-21T13:32:37.321Z,9.43
2023-10-21T13:33:39.975Z,9.67
2023-10-21T13:34:42.606Z,9.83
2023-10-21T13:35:45.429Z,11.67
2023-10-21T13:36:48.293Z,9.67
2023-10-21T13:37:51.264Z,9.83
2023-10-21T13:38:54.160Z,13.00
2023-10-21T13:39:57.054Z,11.67
2023-10-21T13:40:59.942Z,10.57
2023-10-21T13:42:03.030Z,10.83
2023-10-21T13:43:06.031Z,13.00
2023-10-21T13:44:08.948Z,12.83
2023-10-21T13:45:11.970Z,10.67